< Typhoon 198810 1988 Season Typhoon 198812 >
Typhoon 198811 (NO-NAME)
General InformationTrack Information on Google MapsDetailed Wind InformationList of All Images || NewsDisaster Info.ResourceGoogle EarthGE AnimationAtom FeedGeoJSON
Detalied Best Track (Time Zone = UTC)
Year Month Day Hour Lat. Long. Pressure (hPa) Wind (kt) Class Image Chart
1988 8 13 06 26.0 127.0 1004 0 2 Image Chart
1988 8 13 12 26.5 128.5 1004 0 2 Image Chart
1988 8 13 18 27.0 130.0 1004 0 2 Image Chart
1988 8 14 00 27.5 131.5 1004 0 2 Image Chart
1988 8 14 06 28.5 132.6 1004 0 2 Image Chart
1988 8 14 12 29.5 134.0 1002 0 2 Image Chart
1988 8 14 18 30.5 135.0 1000 35 3 Image Chart
1988 8 15 00 31.2 135.8 1000 35 3 Image Chart
1988 8 15 06 32.2 135.8 1000 35 3 Image Chart
1988 8 15 12 33.6 135.8 1000 0 2 Image Chart
1988 8 15 18 34.5 135.0 1004 0 2 Image Chart
1988 8 16 00 35.5 134.0 1004 0 2 Image Chart
1988 8 16 06 36.0 133.5 1002 0 2 Image Chart
1988 8 16 12 36.5 132.5 1004 0 2 Image Chart
1988 8 16 18 37.5 132.5 1004 0 2 Image Chart
1988 8 17 00 38.0 133.0 1006 0 2 Image Chart
1988 8 17 06 38.0 133.0 1004 0 2 Image Chart
1988 8 17 12 38.5 133.0 1006 0 2 Image Chart
1988 8 17 18 39.5 133.0 1006 0 2 Image Chart
1988 8 18 00 40.5 132.5 1006 0 2 Image Chart
1988 8 18 06 41.5 131.5 1006 0 2 Image Chart
Japan Meteorological Agency Best Track Data | Correction Date : 1992-10-21
< Typhoon 198810 1988 Season Typhoon 198812 >

Help